Time;durP1;ratioP1;P1;durP2;ratioP2;P2;SDS_P1;SDS_P2;PMS_P1;PMS_P2;Temp;Humidity;BMP_temperature;BMP_pressure;BME280_temperature;BME280_humidity;BME280_pressure;Samples;Min_cycle;Max_cycle;Signal;HPM_P1;HPM_P2
2023/12/03 00:00:02;;;;;;;16.07;13.73;;;;;;;;;;523743;28;1446;-73
2023/12/03 00:00:18;;;;;;;16.48;14.20;;;;;;;;;;522422;28;1817;-73
2023/12/03 00:00:33;;;;;;;18.00;14.68;;;;;;;;;;523154;28;1834;-72
2023/12/03 00:00:49;;;;;;;18.23;14.73;;;;;;;;;;523346;28;1230;-73
2023/12/03 00:01:04;;;;;;;17.70;14.70;;;;;;;;;;523775;28;1513;-73
2023/12/03 00:01:20;;;;;;;17.13;14.30;;;;;;;;;;523878;28;1301;-73
2023/12/03 00:01:35;;;;;;;16.27;14.03;;;;;;;;;;523611;28;1407;-72
2023/12/03 00:01:50;;;;;;;16.50;14.17;;;;;;;;;;523804;28;1403;-73
2023/12/03 00:02:06;;;;;;;16.38;14.25;;;;;;;;;;523508;28;1926;-73
2023/12/03 00:02:22;;;;;;;17.93;14.63;;;;;;;;;;523430;28;1320;-73
2023/12/03 00:02:38;;;;;;;17.98;14.60;;;;;;;;;;523786;28;1617;-73
2023/12/03 00:02:53;;;;;;;17.00;13.93;;;;;;;;;;523311;28;1325;-73
2023/12/03 00:03:10;;;;;;;16.70;13.60;;;;;;;;;;523872;28;1356;-73
2023/12/03 00:03:26;;;;;;;16.38;13.70;;;;;;;;;;523109;28;1443;-73
2023/12/03 00:03:41;;;;;;;17.00;13.90;;;;;;;;;;522903;28;1882;-73
2023/12/03 00:03:56;;;;;;;16.73;13.77;;;;;;;;;;523018;28;1313;-73
2023/12/03 00:04:12;;;;;;;16.67;13.98;;;;;;;;;;523252;28;1297;-73
2023/12/03 00:04:28;;;;;;;16.85;14.07;;;;;;;;;;523713;28;1404;-72
2023/12/03 00:04:44;;;;;;;16.63;13.87;;;;;;;;;;521876;28;1189;-72
2023/12/03 00:04:59;;;;;;;16.92;14.18;;;;;;;;;;522756;28;1379;-72
2023/12/03 00:05:15;;;;;;;17.23;14.43;;;;;;;;;;521590;28;1912;-73
2023/12/03 00:05:30;;;;;;;16.80;14.20;;;;;;;;;;522573;28;1396;-73
2023/12/03 00:05:46;;;;;;;16.33;13.95;;;;;;;;;;522267;28;1352;-73
2023/12/03 00:06:01;;;;;;;16.03;13.80;;;;;;;;;;522406;28;1456;-73
2023/12/03 00:06:16;;;;;;;16.20;13.85;;;;;;;;;;522456;28;1438;-73
2023/12/03 00:06:32;;;;;;;16.13;13.47;;;;;;;;;;522488;28;1467;-73
2023/12/03 00:06:47;;;;;;;16.47;13.63;;;;;;;;;;521560;28;1396;-72
2023/12/03 00:07:03;;;;;;;17.27;14.30;;;;;;;;;;520602;28;1886;-72
2023/12/03 00:07:20;;;;;;;17.88;14.60;;;;;;;;;;521640;28;1547;-73
2023/12/03 00:07:36;;;;;;;18.85;15.57;;;;;;;;;;521023;28;1400;-73
2023/12/03 00:07:51;;;;;;;17.83;15.00;;;;;;;;;;521541;28;1435;-73
2023/12/03 00:08:07;;;;;;;16.53;14.07;;;;;;;;;;521374;28;1479;-73
2023/12/03 00:08:22;;;;;;;17.45;14.57;;;;;;;;;;521375;28;1436;-73
2023/12/03 00:08:37;;;;;;;18.07;15.13;;;;;;;;;;522096;28;1708;-73
2023/12/03 00:08:53;;;;;;;18.23;15.10;;;;;;;;;;523897;28;1566;-73
2023/12/03 00:09:08;;;;;;;18.42;15.27;;;;;;;;;;523761;28;1443;-73
2023/12/03 00:09:24;;;;;;;20.40;16.90;;;;;;;;;;523198;28;1467;-73
2023/12/03 00:09:39;;;;;;;23.52;18.80;;;;;;;;;;522977;28;1264;-73
2023/12/03 00:09:58;;;;;;;23.93;18.80;;;;;;;;;;523826;28;1462;-72
2023/12/03 00:10:14;;;;;;;25.52;19.95;;;;;;;;;;523084;28;1783;-72
2023/12/03 00:10:30;;;;;;;25.27;19.95;;;;;;;;;;522171;28;1329;-72
2023/12/03 00:10:46;;;;;;;22.85;18.25;;;;;;;;;;523265;28;1139;-73
2023/12/03 00:11:01;;;;;;;22.40;18.10;;;;;;;;;;523694;28;1375;-72
2023/12/03 00:11:16;;;;;;;23.40;18.83;;;;;;;;;;523235;28;1324;-73
2023/12/03 00:11:32;;;;;;;24.00;19.13;;;;;;;;;;523549;28;1305;-73
2023/12/03 00:11:47;;;;;;;21.43;17.47;;;;;;;;;;523642;28;1909;-73
2023/12/03 00:12:04;;;;;;;19.37;15.73;;;;;;;;;;523859;28;1482;-73
2023/12/03 00:12:20;;;;;;;19.98;15.93;;;;;;;;;;523109;28;1352;-73
2023/12/03 00:12:38;;;;;;;19.03;15.70;;;;;;;;;;523627;28;1371;-73
2023/12/03 00:12:53;;;;;;;18.02;15.00;;;;;;;;;;523527;28;1125;-72
2023/12/03 00:13:08;;;;;;;17.63;14.65;;;;;;;;;;523781;28;1494;-73
2023/12/03 00:13:24;;;;;;;16.30;14.17;;;;;;;;;;523571;28;1889;-73
2023/12/03 00:13:39;;;;;;;16.37;13.93;;;;;;;;;;523601;28;1438;-73
2023/12/03 00:13:55;;;;;;;16.88;13.75;;;;;;;;;;523706;28;1367;-73
2023/12/03 00:14:11;;;;;;;17.25;13.93;;;;;;;;;;523229;28;1307;-73
2023/12/03 00:14:26;;;;;;;18.03;14.50;;;;;;;;;;523634;28;1411;-73
2023/12/03 00:14:41;;;;;;;17.33;14.23;;;;;;;;;;523408;28;1248;-73
2023/12/03 00:14:57;;;;;;;16.50;13.75;;;;;;;;;;523712;28;1493;-73
2023/12/03 00:15:13;;;;;;;16.77;13.90;;;;;;;;;;522818;28;1957;-73
2023/12/03 00:15:28;;;;;;;16.43;13.93;;;;;;;;;;523747;28;1383;-73
2023/12/03 00:15:43;;;;;;;16.38;13.95;;;;;;;;;;521853;28;1735;-73
2023/12/03 00:15:59;;;;;;;16.90;13.80;;;;;;;;;;523245;28;1178;-73
2023/12/03 00:16:14;;;;;;;16.97;14.13;;;;;;;;;;523590;28;1353;-72
2023/12/03 00:16:29;;;;;;;17.63;14.63;;;;;;;;;;523517;28;1361;-73
2023/12/03 00:16:44;;;;;;;17.65;14.05;;;;;;;;;;520637;28;1769;-73
2023/12/03 00:17:00;;;;;;;17.53;13.80;;;;;;;;;;521408;28;1441;-72
2023/12/03 00:17:15;;;;;;;17.48;14.15;;;;;;;;;;521691;28;1582;-72
2023/12/03 00:17:31;;;;;;;17.13;14.17;;;;;;;;;;520755;28;1527;-72
2023/12/03 00:17:46;;;;;;;17.07;14.10;;;;;;;;;;521592;28;1451;-73
2023/12/03 00:18:01;;;;;;;16.88;14.20;;;;;;;;;;521413;28;1294;-73
2023/12/03 00:18:17;;;;;;;17.50;14.50;;;;;;;;;;521089;28;1773;-73
2023/12/03 00:18:32;;;;;;;17.63;14.60;;;;;;;;;;521557;28;2263;-73
2023/12/03 00:18:47;;;;;;;17.33;14.27;;;;;;;;;;523506;28;1431;-73
2023/12/03 00:19:03;;;;;;;17.73;14.07;;;;;;;;;;523574;28;1399;-72
2023/12/03 00:19:18;;;;;;;17.00;14.03;;;;;;;;;;523608;28;1399;-72
2023/12/03 00:19:33;;;;;;;16.38;14.02;;;;;;;;;;523502;28;1423;-73
2023/12/03 00:19:49;;;;;;;17.33;14.27;;;;;;;;;;523670;28;1454;-73
2023/12/03 00:20:05;;;;;;;17.75;14.40;;;;;;;;;;523089;28;2875;-72
2023/12/03 00:20:20;;;;;;;17.90;14.60;;;;;;;;;;523501;28;1410;-72
2023/12/03 00:20:36;;;;;;;17.70;14.57;;;;;;;;;;523238;28;1514;-72
2023/12/03 00:20:51;;;;;;;17.52;14.57;;;;;;;;;;522968;28;1376;-73
2023/12/03 00:21:07;;;;;;;17.93;14.50;;;;;;;;;;523676;28;1403;-73
2023/12/03 00:21:22;;;;;;;17.42;14.18;;;;;;;;;;523755;28;1396;-72
2023/12/03 00:21:37;;;;;;;17.23;14.43;;;;;;;;;;521247;28;1907;-72
2023/12/03 00:21:53;;;;;;;18.07;14.60;;;;;;;;;;521526;28;1460;-72
2023/12/03 00:22:08;;;;;;;18.42;14.48;;;;;;;;;;521338;28;1448;-72
2023/12/03 00:22:24;;;;;;;17.57;14.57;;;;;;;;;;520578;28;1886;-73
2023/12/03 00:22:39;;;;;;;16.55;13.98;;;;;;;;;;520322;28;2573;-73
2023/12/03 00:22:55;;;;;;;17.17;13.70;;;;;;;;;;521207;28;2007;-72
2023/12/03 00:23:10;;;;;;;17.83;14.00;;;;;;;;;;521389;28;1623;-72
2023/12/03 00:23:25;;;;;;;17.97;14.30;;;;;;;;;;521348;28;2232;-72
2023/12/03 00:23:41;;;;;;;17.55;14.20;;;;;;;;;;523274;28;1518;-72
2023/12/03 00:23:56;;;;;;;17.37;14.20;;;;;;;;;;523790;28;1471;-73
2023/12/03 00:24:11;;;;;;;17.17;14.00;;;;;;;;;;523849;28;1487;-72
2023/12/03 00:24:27;;;;;;;17.17;13.93;;;;;;;;;;523115;28;1464;-72
2023/12/03 00:24:42;;;;;;;17.00;14.03;;;;;;;;;;523505;28;1145;-72
2023/12/03 00:24:58;;;;;;;16.30;13.50;;;;;;;;;;523475;28;2198;-73
2023/12/03 00:25:13;;;;;;;15.87;13.13;;;;;;;;;;522991;28;1944;-73
2023/12/03 00:25:28;;;;;;;16.87;13.73;;;;;;;;;;523784;28;1435;-73
2023/12/03 00:25:43;;;;;;;17.95;14.38;;;;;;;;;;523048;28;1306;-73
2023/12/03 00:25:59;;;;;;;17.53;14.00;;;;;;;;;;523151;28;1281;-72
2023/12/03 00:26:14;;;;;;;16.93;13.67;;;;;;;;;;523918;28;1447;-72
2023/12/03 00:26:29;;;;;;;17.03;13.90;;;;;;;;;;522851;28;1714;-72
2023/12/03 00:26:45;;;;;;;17.63;14.27;;;;;;;;;;523534;28;1471;-73
2023/12/03 00:27:01;;;;;;;17.50;14.20;;;;;;;;;;523426;28;1340;-73
2023/12/03 00:27:16;;;;;;;17.80;14.00;;;;;;;;;;521062;28;2357;-72
2023/12/03 00:27:31;;;;;;;18.17;14.32;;;;;;;;;;521169;28;1373;-73
2023/12/03 00:27:48;;;;;;;18.20;14.70;;;;;;;;;;520697;28;1527;-73
2023/12/03 00:28:04;;;;;;;17.63;14.45;;;;;;;;;;521034;28;2024;-73
2023/12/03 00:28:20;;;;;;;16.73;14.03;;;;;;;;;;521507;28;1479;-72
2023/12/03 00:28:35;;;;;;;16.45;13.60;;;;;;;;;;521452;28;1468;-73
2023/12/03 00:28:50;;;;;;;16.57;13.63;;;;;;;;;;521627;28;1452;-73
2023/12/03 00:29:05;;;;;;;16.50;13.75;;;;;;;;;;521904;28;1432;-72
2023/12/03 00:29:21;;;;;;;16.10;13.70;;;;;;;;;;521665;28;1695;-72
2023/12/03 00:29:36;;;;;;;16.43;13.90;;;;;;;;;;523259;28;1325;-72
2023/12/03 00:29:51;;;;;;;16.88;13.82;;;;;;;;;;522545;28;2511;-72
2023/12/03 00:30:07;;;;;;;16.57;13.47;;;;;;;;;;522159;28;1403;-73
2023/12/03 00:30:22;;;;;;;16.60;13.77;;;;;;;;;;522693;28;1412;-72
2023/12/03 00:30:38;;;;;;;17.83;14.70;;;;;;;;;;523540;28;1530;-72
2023/12/03 00:30:53;;;;;;;18.60;15.17;;;;;;;;;;523027;28;1237;-73
2023/12/03 00:31:08;;;;;;;18.13;14.57;;;;;;;;;;523534;28;1435;-73
2023/12/03 00:31:23;;;;;;;18.47;14.50;;;;;;;;;;522795;28;1791;-72
2023/12/03 00:31:39;;;;;;;17.80;14.37;;;;;;;;;;523137;28;2230;-72
2023/12/03 00:31:54;;;;;;;17.70;14.20;;;;;;;;;;523624;28;1356;-72
2023/12/03 00:32:09;;;;;;;17.37;14.27;;;;;;;;;;523489;28;1422;-73
2023/12/03 00:32:25;;;;;;;16.63;13.90;;;;;;;;;;523859;28;1419;-72
2023/12/03 00:32:40;;;;;;;16.67;13.73;;;;;;;;;;523743;28;1359;-72
2023/12/03 00:32:55;;;;;;;17.70;14.43;;;;;;;;;;523826;28;1407;-72
2023/12/03 00:33:11;;;;;;;17.83;14.40;;;;;;;;;;522855;28;1690;-72
2023/12/03 00:33:26;;;;;;;16.83;13.95;;;;;;;;;;523465;28;1191;-73
2023/12/03 00:33:41;;;;;;;17.50;14.40;;;;;;;;;;523586;28;1292;-72
2023/12/03 00:33:56;;;;;;;17.33;14.47;;;;;;;;;;523771;28;1458;-73
2023/12/03 00:34:12;;;;;;;17.33;14.30;;;;;;;;;;523737;28;1292;-72
2023/12/03 00:34:27;;;;;;;19.13;14.87;;;;;;;;;;523877;28;1459;-72
2023/12/03 00:34:43;;;;;;;18.73;15.13;;;;;;;;;;523485;28;1785;-72
2023/12/03 00:34:58;;;;;;;17.98;14.93;;;;;;;;;;523298;28;1821;-72
2023/12/03 00:35:14;;;;;;;18.53;14.87;;;;;;;;;;523103;28;1502;-73
2023/12/03 00:35:29;;;;;;;17.88;14.57;;;;;;;;;;523540;28;1154;-73
2023/12/03 00:35:45;;;;;;;17.23;14.30;;;;;;;;;;523729;28;1297;-72
2023/12/03 00:36:00;;;;;;;17.65;14.43;;;;;;;;;;520464;28;1904;-71
2023/12/03 00:36:15;;;;;;;17.10;14.27;;;;;;;;;;520976;28;1230;-73
2023/12/03 00:36:30;;;;;;;16.13;13.80;;;;;;;;;;521211;28;1958;-72
2023/12/03 00:36:46;;;;;;;17.15;14.18;;;;;;;;;;521652;28;1261;-72
2023/12/03 00:37:01;;;;;;;17.67;14.47;;;;;;;;;;520852;28;1652;-72
2023/12/03 00:37:17;;;;;;;17.77;14.27;;;;;;;;;;521269;28;1352;-72
2023/12/03 00:37:32;;;;;;;18.33;14.60;;;;;;;;;;521230;28;1590;-72
2023/12/03 00:37:47;;;;;;;17.77;14.43;;;;;;;;;;521772;28;1392;-73
2023/12/03 00:38:03;;;;;;;16.57;13.53;;;;;;;;;;523782;28;1411;-73
2023/12/03 00:38:18;;;;;;;17.53;13.70;;;;;;;;;;523579;28;1837;-73
2023/12/03 00:38:34;;;;;;;17.98;14.18;;;;;;;;;;523626;28;1400;-72
2023/12/03 00:38:49;;;;;;;17.30;14.23;;;;;;;;;;523862;28;1415;-73
2023/12/03 00:39:06;;;;;;;17.20;14.10;;;;;;;;;;523758;28;1506;-73
2023/12/03 00:39:21;;;;;;;17.02;14.20;;;;;;;;;;523148;28;1233;-73
2023/12/03 00:39:36;;;;;;;17.57;14.60;;;;;;;;;;523548;28;1391;-72
2023/12/03 00:39:52;;;;;;;17.38;14.40;;;;;;;;;;522725;28;1671;-72
2023/12/03 00:40:07;;;;;;;17.13;14.37;;;;;;;;;;522929;28;1242;-72
2023/12/03 00:40:23;;;;;;;17.58;14.70;;;;;;;;;;523409;28;1414;-72
2023/12/03 00:40:39;;;;;;;17.57;14.30;;;;;;;;;;523705;28;1451;-73
2023/12/03 00:40:54;;;;;;;17.30;14.00;;;;;;;;;;523793;28;1383;-72
2023/12/03 00:41:09;;;;;;;17.70;14.35;;;;;;;;;;523828;28;1501;-72
2023/12/03 00:41:25;;;;;;;17.03;14.13;;;;;;;;;;523744;28;1965;-72
2023/12/03 00:41:41;;;;;;;16.38;14.20;;;;;;;;;;522265;28;1848;-72
2023/12/03 00:41:56;;;;;;;16.53;14.13;;;;;;;;;;522962;28;1265;-72
2023/12/03 00:42:11;;;;;;;16.60;14.25;;;;;;;;;;523559;28;1395;-73
2023/12/03 00:42:26;;;;;;;16.40;14.30;;;;;;;;;;523857;28;1411;-72
2023/12/03 00:42:42;;;;;;;16.90;14.37;;;;;;;;;;522889;28;1169;-72
2023/12/03 00:42:57;;;;;;;18.23;15.00;;;;;;;;;;523518;28;1738;-73
2023/12/03 00:43:12;;;;;;;17.83;15.05;;;;;;;;;;523233;28;1411;-73
2023/12/03 00:43:28;;;;;;;17.47;15.03;;;;;;;;;;523720;28;1364;-72
2023/12/03 00:43:43;;;;;;;18.17;15.10;;;;;;;;;;523362;28;1210;-73
2023/12/03 00:43:58;;;;;;;19.58;15.10;;;;;;;;;;522778;28;1435;-73
2023/12/03 00:44:13;;;;;;;19.27;14.90;;;;;;;;;;523709;28;1601;-72
2023/12/03 00:44:29;;;;;;;18.20;14.90;;;;;;;;;;523831;28;1340;-72
2023/12/03 00:44:44;;;;;;;18.33;15.15;;;;;;;;;;523228;28;1813;-73
2023/12/03 00:44:59;;;;;;;19.10;15.17;;;;;;;;;;523532;28;1439;-72
2023/12/03 00:45:15;;;;;;;18.70;14.80;;;;;;;;;;523139;28;1919;-73
2023/12/03 00:45:30;;;;;;;16.73;14.10;;;;;;;;;;523510;28;1407;-73
2023/12/03 00:45:45;;;;;;;16.67;14.20;;;;;;;;;;523714;28;1343;-73
2023/12/03 00:46:02;;;;;;;16.50;14.30;;;;;;;;;;523398;28;1466;-73
2023/12/03 00:46:19;;;;;;;16.60;14.02;;;;;;;;;;523003;28;1949;-72
2023/12/03 00:46:34;;;;;;;16.80;13.95;;;;;;;;;;523263;28;1384;-72
2023/12/03 00:46:49;;;;;;;16.90;14.33;;;;;;;;;;523575;28;1407;-72
2023/12/03 00:47:04;;;;;;;17.70;14.77;;;;;;;;;;523630;28;1364;-72
2023/12/03 00:47:20;;;;;;;17.70;14.77;;;;;;;;;;523683;28;1455;-72
2023/12/03 00:47:35;;;;;;;17.57;14.50;;;;;;;;;;523549;28;1376;-73
2023/12/03 00:47:50;;;;;;;17.03;14.13;;;;;;;;;;523748;28;1359;-73
2023/12/03 00:48:06;;;;;;;16.30;13.65;;;;;;;;;;523448;28;1845;-73
2023/12/03 00:48:21;;;;;;;17.13;14.30;;;;;;;;;;523785;28;1459;-73
2023/12/03 00:48:38;;;;;;;17.27;14.73;;;;;;;;;;523709;28;1506;-72
2023/12/03 00:48:53;;;;;;;17.20;14.43;;;;;;;;;;523191;28;1424;-72
2023/12/03 00:49:10;;;;;;;17.87;14.60;;;;;;;;;;523795;28;1490;-72
2023/12/03 00:49:25;;;;;;;18.85;14.70;;;;;;;;;;523550;28;1388;-72
2023/12/03 00:49:41;;;;;;;18.42;14.35;;;;;;;;;;523900;28;1793;-72
2023/12/03 00:49:56;;;;;;;16.90;14.30;;;;;;;;;;523628;28;1471;-72
2023/12/03 00:50:11;;;;;;;18.20;15.10;;;;;;;;;;523240;28;1460;-72
2023/12/03 00:50:27;;;;;;;18.73;15.32;;;;;;;;;;523825;28;1412;-72
2023/12/03 00:50:42;;;;;;;18.80;15.10;;;;;;;;;;523438;28;1454;-73
2023/12/03 00:50:57;;;;;;;18.37;14.80;;;;;;;;;;523422;28;1609;-72
2023/12/03 00:51:14;;;;;;;17.27;14.45;;;;;;;;;;523042;28;1829;-73
2023/12/03 00:51:29;;;;;;;17.42;14.38;;;;;;;;;;524082;28;1118;-73
2023/12/03 00:51:44;;;;;;;18.03;14.67;;;;;;;;;;522844;28;1853;-72
2023/12/03 00:51:59;;;;;;;18.17;14.95;;;;;;;;;;523010;28;892;-73
2023/12/03 00:52:15;;;;;;;17.73;14.80;;;;;;;;;;522422;28;1605;-73
2023/12/03 00:52:30;;;;;;;17.73;14.27;;;;;;;;;;522750;28;1581;-73
2023/12/03 00:52:45;;;;;;;18.15;14.50;;;;;;;;;;524094;28;1464;-72
2023/12/03 00:53:01;;;;;;;17.77;14.80;;;;;;;;;;524156;28;1028;-72
2023/12/03 00:53:16;;;;;;;17.40;14.60;;;;;;;;;;524270;28;779;-72
2023/12/03 00:53:31;;;;;;;17.25;14.20;;;;;;;;;;524105;28;1113;-72
2023/12/03 00:53:46;;;;;;;17.40;14.30;;;;;;;;;;524240;28;814;-72
2023/12/03 00:54:02;;;;;;;17.30;14.43;;;;;;;;;;524148;28;871;-72
2023/12/03 00:54:17;;;;;;;17.17;14.25;;;;;;;;;;524202;28;839;-72
2023/12/03 00:54:32;;;;;;;17.93;14.50;;;;;;;;;;524235;28;1198;-72
2023/12/03 00:54:48;;;;;;;17.07;13.97;;;;;;;;;;524278;28;819;-72
2023/12/03 00:55:03;;;;;;;17.02;13.77;;;;;;;;;;524104;28;1041;-73
2023/12/03 00:55:19;;;;;;;18.27;14.53;;;;;;;;;;523694;28;767;-73
2023/12/03 00:55:34;;;;;;;19.15;14.82;;;;;;;;;;524074;28;1147;-72
2023/12/03 00:55:49;;;;;;;18.27;14.80;;;;;;;;;;523258;28;1817;-72
2023/12/03 00:56:05;;;;;;;17.13;14.27;;;;;;;;;;524099;28;809;-72
2023/12/03 00:56:21;;;;;;;17.63;14.05;;;;;;;;;;524144;28;775;-73
2023/12/03 00:56:36;;;;;;;17.98;14.60;;;;;;;;;;524284;28;1152;-72
2023/12/03 00:56:51;;;;;;;18.67;14.67;;;;;;;;;;524261;28;804;-72
2023/12/03 00:57:07;;;;;;;18.13;14.50;;;;;;;;;;524229;28;807;-73
2023/12/03 00:57:22;;;;;;;17.58;14.63;;;;;;;;;;524329;28;910;-72
2023/12/03 00:57:37;;;;;;;17.80;14.43;;;;;;;;;;524207;28;1158;-72
2023/12/03 00:57:52;;;;;;;17.27;14.23;;;;;;;;;;524184;28;883;-72
2023/12/03 00:58:08;;;;;;;17.87;14.53;;;;;;;;;;524258;28;1006;-73
2023/12/03 00:58:23;;;;;;;18.00;14.63;;;;;;;;;;524053;28;965;-72
2023/12/03 00:58:39;;;;;;;17.83;14.60;;;;;;;;;;524144;28;1068;-72
2023/12/03 00:58:54;;;;;;;18.35;14.77;;;;;;;;;;521858;28;875;-72
2023/12/03 00:59:09;;;;;;;17.87;14.50;;;;;;;;;;522100;28;757;-73
2023/12/03 00:59:24;;;;;;;17.37;14.20;;;;;;;;;;522199;28;799;-73
2023/12/03 00:59:40;;;;;;;18.10;14.80;;;;;;;;;;521940;28;1104;-73
2023/12/03 00:59:55;;;;;;;18.70;15.20;;;;;;;;;;521980;28;807;-72
2023/12/03 01:00:11;;;;;;;17.77;14.63;;;;;;;;;;521019;28;1994;-72
2023/12/03 01:00:27;;;;;;;17.95;14.57;;;;;;;;;;521783;28;1425;-72
2023/12/03 01:00:42;;;;;;;19.75;15.57;;;;;;;;;;521978;28;1076;-72
2023/12/03 01:00:57;;;;;;;19.70;15.17;;;;;;;;;;524069;28;883;-72
2023/12/03 01:01:12;;;;;;;18.80;14.67;;;;;;;;;;524232;28;926;-72
2023/12/03 01:01:28;;;;;;;18.27;14.83;;;;;;;;;;524124;28;1238;-73
2023/12/03 01:01:43;;;;;;;17.30;14.60;;;;;;;;;;523874;28;1187;-73
2023/12/03 01:01:59;;;;;;;17.40;14.20;;;;;;;;;;523974;28;871;-73
2023/12/03 01:02:14;;;;;;;18.33;14.13;;;;;;;;;;524076;28;1171;-72
2023/12/03 01:02:29;;;;;;;18.53;14.63;;;;;;;;;;524075;28;1044;-72
2023/12/03 01:02:45;;;;;;;18.15;14.70;;;;;;;;;;524091;28;998;-72
2023/12/03 01:03:00;;;;;;;17.50;14.37;;;;;;;;;;524133;28;767;-72
2023/12/03 01:03:15;;;;;;;17.07;14.37;;;;;;;;;;524312;28;863;-73
2023/12/03 01:03:31;;;;;;;17.00;14.43;;;;;;;;;;524116;28;1190;-73
2023/12/03 01:03:46;;;;;;;17.63;14.37;;;;;;;;;;524278;28;791;-73
2023/12/03 01:04:01;;;;;;;18.00;14.70;;;;;;;;;;523753;28;989;-72
2023/12/03 01:04:18;;;;;;;17.77;14.63;;;;;;;;;;523986;28;944;-72
2023/12/03 01:04:33;;;;;;;17.67;14.32;;;;;;;;;;524095;28;1167;-72
2023/12/03 01:04:49;;;;;;;17.70;14.20;;;;;;;;;;522514;28;1761;-72
2023/12/03 01:05:04;;;;;;;17.50;14.27;;;;;;;;;;523734;28;815;-72
2023/12/03 01:05:19;;;;;;;17.52;14.25;;;;;;;;;;523702;28;2001;-72
2023/12/03 01:05:35;;;;;;;18.63;14.70;;;;;;;;;;524020;28;1123;-72
2023/12/03 01:05:50;;;;;;;19.17;15.00;;;;;;;;;;524166;28;898;-72
2023/12/03 01:06:05;;;;;;;18.30;14.50;;;;;;;;;;524353;28;953;-72
2023/12/03 01:06:21;;;;;;;17.90;14.10;;;;;;;;;;524292;28;803;-72
2023/12/03 01:06:36;;;;;;;18.10;14.20;;;;;;;;;;524134;28;1108;-73
2023/12/03 01:06:51;;;;;;;17.57;14.17;;;;;;;;;;522264;28;1676;-73
2023/12/03 01:07:07;;;;;;;16.70;14.00;;;;;;;;;;522182;28;1675;-73
2023/12/03 01:07:22;;;;;;;17.92;14.82;;;;;;;;;;523996;28;1474;-72
2023/12/03 01:07:37;;;;;;;18.70;15.27;;;;;;;;;;523974;28;1382;-72
2023/12/03 01:07:53;;;;;;;17.83;14.57;;;;;;;;;;521916;28;923;-73
2023/12/03 01:08:08;;;;;;;17.25;14.13;;;;;;;;;;522024;28;847;-73
2023/12/03 01:08:23;;;;;;;17.30;14.37;;;;;;;;;;522099;28;958;-73
2023/12/03 01:08:39;;;;;;;17.70;14.53;;;;;;;;;;523349;28;1056;-72
2023/12/03 01:08:54;;;;;;;18.60;14.73;;;;;;;;;;523874;28;846;-73
2023/12/03 01:09:09;;;;;;;19.10;14.77;;;;;;;;;;524212;28;792;-73
2023/12/03 01:09:26;;;;;;;18.17;14.40;;;;;;;;;;524019;28;1219;-73
2023/12/03 01:09:42;;;;;;;17.98;14.30;;;;;;;;;;524001;28;1036;-73
2023/12/03 01:09:57;;;;;;;18.20;14.40;;;;;;;;;;524164;28;961;-73
2023/12/03 01:10:12;;;;;;;18.00;14.40;;;;;;;;;;523742;28;1183;-73
2023/12/03 01:10:28;;;;;;;18.42;14.60;;;;;;;;;;524268;28;1148;-73
2023/12/03 01:10:43;;;;;;;17.93;14.27;;;;;;;;;;524053;28;1152;-73
2023/12/03 01:10:58;;;;;;;17.83;14.20;;;;;;;;;;523862;28;989;-73
2023/12/03 01:11:14;;;;;;;18.33;14.43;;;;;;;;;;524042;28;1156;-73
2023/12/03 01:11:29;;;;;;;17.80;14.60;;;;;;;;;;524004;28;1092;-73
2023/12/03 01:11:44;;;;;;;17.40;14.30;;;;;;;;;;523269;28;1813;-73
2023/12/03 01:12:01;;;;;;;17.88;14.38;;;;;;;;;;523424;28;958;-73
2023/12/03 01:12:16;;;;;;;18.42;14.68;;;;;;;;;;524271;28;941;-73
2023/12/03 01:12:31;;;;;;;18.53;14.80;;;;;;;;;;524133;28;1088;-73
2023/12/03 01:12:47;;;;;;;18.67;14.73;;;;;;;;;;524164;28;940;-73
2023/12/03 01:13:02;;;;;;;18.45;14.57;;;;;;;;;;523956;28;1012;-72
2023/12/03 01:13:18;;;;;;;17.90;14.40;;;;;;;;;;524283;28;823;-72
2023/12/03 01:13:33;;;;;;;17.90;14.67;;;;;;;;;;523916;28;1139;-73
2023/12/03 01:13:48;;;;;;;18.10;14.70;;;;;;;;;;524040;28;755;-73
2023/12/03 01:14:03;;;;;;;17.65;14.40;;;;;;;;;;522203;28;930;-73
2023/12/03 01:14:19;;;;;;;17.40;14.27;;;;;;;;;;522065;28;1371;-73
2023/12/03 01:14:34;;;;;;;17.97;14.33;;;;;;;;;;524031;28;1104;-72
2023/12/03 01:14:49;;;;;;;17.77;14.30;;;;;;;;;;524238;28;886;-72
2023/12/03 01:15:05;;;;;;;17.70;14.40;;;;;;;;;;523841;28;878;-72
2023/12/03 01:15:20;;;;;;;18.48;14.85;;;;;;;;;;523766;28;965;-72
2023/12/03 01:15:36;;;;;;;18.73;14.70;;;;;;;;;;523956;28;1143;-73
2023/12/03 01:15:51;;;;;;;18.07;14.20;;;;;;;;;;524153;28;989;-73
2023/12/03 01:16:14;;;;;;;17.30;14.05;;;;;;;;;;524202;28;1027;-72
2023/12/03 01:16:29;;;;;;;18.48;14.52;;;;;;;;;;524177;28;1183;-72
2023/12/03 01:16:46;;;;;;;18.47;14.60;;;;;;;;;;524024;28;941;-72
2023/12/03 01:17:01;;;;;;;17.60;14.23;;;;;;;;;;524040;28;926;-72
2023/12/03 01:17:17;;;;;;;17.13;14.00;;;;;;;;;;524147;28;1331;-72
2023/12/03 01:17:32;;;;;;;17.37;13.63;;;;;;;;;;523964;28;1083;-73
2023/12/03 01:17:47;;;;;;;17.55;13.93;;;;;;;;;;521870;28;949;-73
2023/12/03 01:18:03;;;;;;;17.43;13.93;;;;;;;;;;521998;28;878;-73
2023/12/03 01:18:18;;;;;;;17.77;13.97;;;;;;;;;;522047;28;795;-73
2023/12/03 01:18:33;;;;;;;18.20;14.60;;;;;;;;;;521868;28;1069;-73
2023/12/03 01:18:49;;;;;;;19.27;14.73;;;;;;;;;;522079;28;891;-73
2023/12/03 01:19:04;;;;;;;19.27;14.60;;;;;;;;;;521949;28;918;-73
2023/12/03 01:19:19;;;;;;;18.73;14.80;;;;;;;;;;521857;28;1026;-73
2023/12/03 01:19:34;;;;;;;18.77;14.73;;;;;;;;;;521930;28;1092;-73
2023/12/03 01:19:50;;;;;;;18.20;14.60;;;;;;;;;;524130;28;824;-72
2023/12/03 01:20:07;;;;;;;18.35;14.77;;;;;;;;;;524059;28;1021;-73
2023/12/03 01:20:22;;;;;;;18.90;14.57;;;;;;;;;;523971;28;898;-73
2023/12/03 01:20:38;;;;;;;18.63;14.40;;;;;;;;;;524197;28;1158;-73
2023/12/03 01:20:53;;;;;;;17.15;14.35;;;;;;;;;;523082;28;1394;-73
2023/12/03 01:21:09;;;;;;;16.93;14.23;;;;;;;;;;524102;28;1381;-73
2023/12/03 01:21:25;;;;;;;18.38;14.57;;;;;;;;;;521899;28;1796;-72
2023/12/03 01:21:40;;;;;;;18.77;14.53;;;;;;;;;;523756;28;914;-73
2023/12/03 01:21:55;;;;;;;17.97;14.40;;;;;;;;;;524137;28;855;-73
2023/12/03 01:22:11;;;;;;;17.35;14.25;;;;;;;;;;521955;28;895;-73
2023/12/03 01:22:26;;;;;;;18.00;14.50;;;;;;;;;;521876;28;803;-73
2023/12/03 01:22:41;;;;;;;17.77;14.60;;;;;;;;;;521793;28;1131;-73
2023/12/03 01:22:57;;;;;;;17.55;14.43;;;;;;;;;;522029;28;906;-72
2023/12/03 01:23:12;;;;;;;17.73;14.20;;;;;;;;;;522089;28;712;-73
2023/12/03 01:23:27;;;;;;;18.13;14.60;;;;;;;;;;520435;28;1771;-73
2023/12/03 01:23:42;;;;;;;18.97;15.00;;;;;;;;;;521681;28;890;-73
2023/12/03 01:23:58;;;;;;;17.83;14.30;;;;;;;;;;522047;28;907;-73
2023/12/03 01:24:13;;;;;;;17.40;14.20;;;;;;;;;;524140;28;1046;-73
2023/12/03 01:24:29;;;;;;;17.37;14.13;;;;;;;;;;522667;28;878;-73
2023/12/03 01:24:44;;;;;;;17.70;13.88;;;;;;;;;;522144;28;941;-73
2023/12/03 01:25:00;;;;;;;17.83;13.90;;;;;;;;;;521915;28;1033;-73
2023/12/03 01:25:15;;;;;;;17.20;14.13;;;;;;;;;;521497;28;1995;-73
2023/12/03 01:25:30;;;;;;;17.07;13.97;;;;;;;;;;523020;28;910;-73
2023/12/03 01:25:46;;;;;;;17.08;13.80;;;;;;;;;;524246;28;863;-73
2023/12/03 01:26:01;;;;;;;19.13;14.20;;;;;;;;;;521771;28;1106;-73
2023/12/03 01:26:16;;;;;;;20.50;15.03;;;;;;;;;;522008;28;839;-73
2023/12/03 01:26:32;;;;;;;20.20;15.60;;;;;;;;;;521905;28;1104;-73
2023/12/03 01:26:47;;;;;;;19.33;15.43;;;;;;;;;;522004;28;866;-73
2023/12/03 01:27:04;;;;;;;18.13;14.90;;;;;;;;;;521927;28;859;-73
2023/12/03 01:27:19;;;;;;;17.27;14.32;;;;;;;;;;522090;28;847;-72
2023/12/03 01:27:35;;;;;;;17.27;14.13;;;;;;;;;;521693;28;1139;-73
2023/12/03 01:27:50;;;;;;;17.40;14.20;;;;;;;;;;522389;28;819;-73
2023/12/03 01:28:05;;;;;;;18.15;14.60;;;;;;;;;;524216;28;878;-73
2023/12/03 01:28:21;;;;;;;18.70;14.63;;;;;;;;;;520867;28;869;-73
2023/12/03 01:28:36;;;;;;;18.38;14.38;;;;;;;;;;521824;28;1100;-73
2023/12/03 01:28:52;;;;;;;18.10;14.50;;;;;;;;;;521891;28;977;-73
2023/12/03 01:29:08;;;;;;;17.85;14.50;;;;;;;;;;521742;28;1085;-73
2023/12/03 01:29:23;;;;;;;18.63;14.48;;;;;;;;;;520734;28;1953;-72
2023/12/03 01:29:39;;;;;;;18.13;14.37;;;;;;;;;;521676;28;1124;-72
2023/12/03 01:29:54;;;;;;;17.10;14.10;;;;;;;;;;522009;28;824;-72
2023/12/03 01:30:09;;;;;;;17.20;14.23;;;;;;;;;;521566;28;760;-72
2023/12/03 01:30:25;;;;;;;17.03;14.20;;;;;;;;;;522190;28;902;-73
2023/12/03 01:30:40;;;;;;;17.13;13.95;;;;;;;;;;522555;28;1885;-73
2023/12/03 01:30:55;;;;;;;18.20;14.10;;;;;;;;;;523987;28;941;-73
2023/12/03 01:31:11;;;;;;;18.03;14.03;;;;;;;;;;524156;28;942;-72
2023/12/03 01:31:26;;;;;;;17.52;14.07;;;;;;;;;;524278;28;886;-72
2023/12/03 01:31:41;;;;;;;18.17;14.20;;;;;;;;;;523853;28;1128;-73
2023/12/03 01:31:57;;;;;;;17.90;14.00;;;;;;;;;;523868;28;999;-72
2023/12/03 01:32:13;;;;;;;17.45;14.15;;;;;;;;;;524299;28;884;-73
2023/12/03 01:32:28;;;;;;;17.35;14.02;;;;;;;;;;524263;28;918;-73
2023/12/03 01:32:43;;;;;;;18.07;13.77;;;;;;;;;;524001;28;1096;-73
2023/12/03 01:32:59;;;;;;;18.07;13.70;;;;;;;;;;524173;28;1170;-72